createdAt,value
2017-05-08T00:00:29.937Z,0
2017-05-08T00:01:10.525Z,0
2017-05-08T00:01:51.142Z,0
2017-05-08T00:02:32.821Z,0
2017-05-08T00:03:13.385Z,0
2017-05-08T00:03:54.037Z,0
2017-05-08T00:04:34.675Z,0
2017-05-08T00:05:15.234Z,0
2017-05-08T00:05:55.891Z,0
2017-05-08T00:06:36.534Z,0
2017-05-08T00:07:17.104Z,0
2017-05-08T00:07:57.732Z,0
2017-05-08T00:08:38.398Z,0
2017-05-08T00:09:19.154Z,0
2017-05-08T00:09:59.808Z,0
2017-05-08T00:10:40.453Z,0
2017-05-08T00:11:21.106Z,0
2017-05-08T00:12:01.762Z,0
2017-05-08T00:12:42.409Z,0
2017-05-08T00:13:22.999Z,0
2017-05-08T00:14:03.665Z,0
2017-05-08T00:14:44.357Z,0
2017-05-08T00:15:25.021Z,0
2017-05-08T00:16:05.581Z,0
2017-05-08T00:16:46.277Z,0
2017-05-08T00:17:26.969Z,0
2017-05-08T00:18:07.672Z,0
2017-05-08T00:18:48.293Z,0
2017-05-08T00:19:28.946Z,0
2017-05-08T00:20:14.924Z,0
2017-05-08T00:20:55.627Z,0
2017-05-08T00:21:36.379Z,0
2017-05-08T00:22:17.143Z,0
2017-05-08T00:22:57.896Z,0
2017-05-08T00:23:38.637Z,0
2017-05-08T00:24:19.303Z,0
2017-05-08T00:25:00.059Z,0
2017-05-08T00:25:40.813Z,0
2017-05-08T00:26:21.593Z,0
2017-05-08T00:27:02.318Z,0
2017-05-08T00:27:43.073Z,0
2017-05-08T00:28:23.829Z,0
2017-05-08T00:29:04.612Z,0
2017-05-08T00:29:45.339Z,0
2017-05-08T00:30:26.135Z,0
2017-05-08T00:31:06.852Z,0
2017-05-08T00:31:47.609Z,0
2017-05-08T00:32:28.365Z,0
2017-05-08T00:33:09.119Z,0
2017-05-08T00:33:49.870Z,0
2017-05-08T00:34:30.632Z,0
2017-05-08T00:35:11.392Z,0
2017-05-08T00:35:52.144Z,0
2017-05-08T00:36:39.557Z,0
2017-05-08T00:37:20.124Z,0
2017-05-08T00:38:00.806Z,0
2017-05-08T00:38:41.512Z,0
2017-05-08T00:39:22.275Z,0
2017-05-08T00:40:02.852Z,0
2017-05-08T00:40:43.536Z,0
2017-05-08T00:41:24.221Z,0
2017-05-08T00:42:04.981Z,0
2017-05-08T00:42:45.567Z,0
2017-05-08T00:43:27.311Z,0
2017-05-08T00:44:08.075Z,0
2017-05-08T00:44:48.641Z,0
2017-05-08T00:45:29.368Z,0
2017-05-08T00:46:10.124Z,0
2017-05-08T00:46:50.713Z,0
2017-05-08T00:47:31.349Z,0
2017-05-08T00:48:12.082Z,0
2017-05-08T00:48:52.860Z,0
2017-05-08T00:49:33.612Z,0
2017-05-08T00:50:14.372Z,0
2017-05-08T00:50:55.104Z,0
2017-05-08T00:51:35.882Z,0
2017-05-08T00:52:16.627Z,0
2017-05-08T00:52:57.376Z,0
2017-05-08T00:53:38.141Z,0
2017-05-08T00:54:18.896Z,0
2017-05-08T00:54:59.637Z,0
2017-05-08T00:55:40.510Z,0
2017-05-08T00:56:21.142Z,0
2017-05-08T00:57:01.916Z,0
2017-05-08T00:57:42.669Z,0
2017-05-08T00:58:23.234Z,0
2017-05-08T00:59:03.924Z,0
2017-05-08T00:59:44.630Z,0
2017-05-08T01:00:25.384Z,0
2017-05-08T01:01:05.955Z,0
2017-05-08T01:01:47.662Z,0
2017-05-08T01:02:29.387Z,0
2017-05-08T01:03:11.174Z,0
2017-05-08T01:03:51.725Z,0
2017-05-08T01:04:33.546Z,0
2017-05-08T01:05:16.298Z,0
2017-05-08T01:05:59.105Z,0
2017-05-08T01:06:39.690Z,0
2017-05-08T01:07:24.977Z,0
2017-05-08T01:08:05.742Z,0
2017-05-08T01:08:46.501Z,0
2017-05-08T01:09:27.246Z,0
2017-05-08T01:10:08.007Z,0
2017-05-08T01:10:48.741Z,0
2017-05-08T01:11:30.551Z,0
2017-05-08T01:12:11.176Z,0
2017-05-08T01:12:51.945Z,0
2017-05-08T01:13:32.583Z,0
2017-05-08T01:14:13.248Z,0
2017-05-08T01:14:53.899Z,0
2017-05-08T01:15:34.564Z,0
2017-05-08T01:16:15.182Z,0
2017-05-08T01:16:55.861Z,0
2017-05-08T01:17:36.503Z,0
2017-05-08T01:18:17.107Z,0
2017-05-08T01:18:57.686Z,0
2017-05-08T01:19:38.306Z,0
2017-05-08T01:20:18.959Z,0
2017-05-08T01:20:59.530Z,0
2017-05-08T01:21:40.194Z,0
2017-05-08T01:22:20.819Z,0
2017-05-08T01:23:01.386Z,0
2017-05-08T01:23:42.017Z,0
2017-05-08T01:24:22.678Z,0
2017-05-08T01:25:03.250Z,0
2017-05-08T01:25:43.873Z,0
2017-05-08T01:26:24.532Z,0
2017-05-08T01:27:05.092Z,0
2017-05-08T01:27:45.728Z,0
2017-05-08T01:28:26.386Z,0
2017-05-08T01:29:06.964Z,0
2017-05-08T01:29:47.641Z,0
2017-05-08T01:30:28.242Z,0
2017-05-08T01:31:08.897Z,0
2017-05-08T01:31:49.471Z,0
2017-05-08T01:32:30.155Z,0
2017-05-08T01:33:10.790Z,0
2017-05-08T01:33:51.410Z,0
2017-05-08T01:34:31.979Z,0
2017-05-08T01:35:12.665Z,0
2017-05-08T01:35:53.285Z,0
2017-05-08T01:36:33.922Z,0
2017-05-08T01:37:14.493Z,0
2017-05-08T01:37:55.177Z,0
2017-05-08T01:38:35.785Z,0
2017-05-08T01:39:16.428Z,0
2017-05-08T01:39:57.000Z,0
2017-05-08T01:40:37.677Z,0
2017-05-08T01:41:18.276Z,0
2017-05-08T01:41:58.943Z,0
2017-05-08T01:42:39.521Z,0
2017-05-08T01:43:20.200Z,0
2017-05-08T01:44:00.897Z,0
2017-05-08T01:44:41.561Z,0
2017-05-08T01:45:22.132Z,0
2017-05-08T01:46:02.781Z,0
2017-05-08T01:46:43.410Z,0
2017-05-08T01:47:24.054Z,0
2017-05-08T01:48:04.619Z,0
2017-05-08T01:48:45.292Z,0
2017-05-08T01:49:25.918Z,0
2017-05-08T01:50:06.479Z,0
2017-05-08T01:50:47.129Z,0
2017-05-08T01:51:27.770Z,0
2017-05-08T01:52:08.347Z,0
2017-05-08T01:52:48.989Z,0
2017-05-08T01:53:29.626Z,0
2017-05-08T01:54:10.294Z,0
2017-05-08T01:54:50.948Z,0
2017-05-08T01:55:31.588Z,0
2017-05-08T01:56:12.250Z,0
2017-05-08T01:56:52.890Z,0
2017-05-08T01:57:33.600Z,0
2017-05-08T01:58:14.309Z,0
2017-05-08T01:58:54.964Z,0
2017-05-08T01:59:35.620Z,0
2017-05-08T02:00:16.262Z,0
2017-05-08T02:00:56.934Z,0
2017-05-08T02:01:37.586Z,0
2017-05-08T02:02:18.239Z,0
2017-05-08T02:02:58.898Z,0
2017-05-08T02:03:39.546Z,0
2017-05-08T02:04:20.203Z,0
2017-05-08T02:05:00.852Z,0
2017-05-08T02:05:41.507Z,0
2017-05-08T02:06:22.158Z,0
2017-05-08T02:07:02.808Z,0
2017-05-08T02:07:43.475Z,0
2017-05-08T02:08:25.128Z,0
2017-05-08T02:09:05.780Z,0
2017-05-08T02:09:46.428Z,0
2017-05-08T02:10:27.098Z,0
2017-05-08T02:11:07.743Z,0
2017-05-08T02:11:48.400Z,0
2017-05-08T02:12:29.051Z,0
2017-05-08T02:13:09.699Z,0
2017-05-08T02:13:50.362Z,0
2017-05-08T02:14:31.017Z,0
2017-05-08T02:15:11.665Z,0
2017-05-08T02:15:52.315Z,0
2017-05-08T02:16:51.620Z,0
2017-05-08T02:17:32.318Z,0
2017-05-08T02:18:13.011Z,0
2017-05-08T02:18:53.656Z,0
2017-05-08T02:19:34.230Z,0
2017-05-08T02:20:14.923Z,0
2017-05-08T02:20:55.628Z,0
2017-05-08T02:21:36.271Z,0
2017-05-08T02:22:16.852Z,0
2017-05-08T02:22:57.517Z,0
2017-05-08T02:23:38.179Z,0
2017-05-08T02:24:18.849Z,0
2017-05-08T02:24:59.499Z,0
2017-05-08T02:25:40.146Z,0
2017-05-08T02:26:20.799Z,0
2017-05-08T02:27:01.436Z,0
2017-05-08T02:27:42.071Z,0
2017-05-08T02:28:22.705Z,0
2017-05-08T02:29:03.280Z,0
2017-05-08T02:29:43.912Z,0
2017-05-08T02:30:26.609Z,0
2017-05-08T02:31:07.167Z,0
2017-05-08T02:31:47.834Z,0
2017-05-08T02:32:28.453Z,0
2017-05-08T02:33:09.037Z,0
2017-05-08T02:33:49.716Z,0
2017-05-08T02:34:31.116Z,0
2017-05-08T02:35:11.787Z,0
2017-05-08T02:35:52.354Z,0
2017-05-08T02:36:33.043Z,0
2017-05-08T02:37:13.740Z,0
2017-05-08T02:37:54.397Z,0
2017-05-08T02:38:35.066Z,0
2017-05-08T02:39:15.705Z,0
2017-05-08T02:39:56.357Z,0
2017-05-08T02:40:37.007Z,0
2017-05-08T02:41:17.666Z,0
2017-05-08T02:41:58.310Z,0
2017-05-08T02:42:38.879Z,0
2017-05-08T02:43:19.590Z,0
2017-05-08T02:44:00.281Z,0
2017-05-08T02:44:41.027Z,0
2017-05-08T02:45:21.589Z,0
2017-05-08T02:46:02.285Z,0
2017-05-08T02:46:42.982Z,0
2017-05-08T02:47:23.643Z,0
2017-05-08T02:48:04.282Z,0
2017-05-08T02:48:44.942Z,0
2017-05-08T02:49:25.595Z,0
2017-05-08T02:50:06.255Z,0
2017-05-08T02:50:46.909Z,0
2017-05-08T02:51:27.573Z,0
2017-05-08T02:52:08.333Z,0
2017-05-08T02:52:48.905Z,0
2017-05-08T02:53:29.619Z,0
2017-05-08T02:54:10.268Z,0
2017-05-08T02:54:50.922Z,0
2017-05-08T02:55:31.489Z,0
2017-05-08T02:56:12.201Z,0
2017-05-08T02:56:52.883Z,0
2017-05-08T02:57:33.536Z,0
2017-05-08T02:58:14.107Z,0
2017-05-08T02:58:54.788Z,0
2017-05-08T02:59:35.501Z,0
2017-05-08T03:00:16.146Z,0
2017-05-08T03:00:56.716Z,0
2017-05-08T03:01:37.423Z,0
2017-05-08T03:02:18.123Z,0
2017-05-08T03:02:58.755Z,0
2017-05-08T03:03:39.411Z,0
2017-05-08T03:04:20.068Z,0
2017-05-08T03:05:00.717Z,0
2017-05-08T03:05:41.380Z,0
2017-05-08T03:06:22.025Z,0
2017-05-08T03:07:03.701Z,0
2017-05-08T03:07:44.311Z,0
2017-05-08T03:08:24.964Z,0
2017-05-08T03:09:05.663Z,0
2017-05-08T03:09:46.323Z,0
2017-05-08T03:10:26.897Z,0
2017-05-08T03:11:07.577Z,0
2017-05-08T03:11:49.228Z,0
2017-05-08T03:12:29.876Z,0
2017-05-08T03:13:11.292Z,0
2017-05-08T03:13:51.968Z,0
2017-05-08T03:14:32.621Z,0
2017-05-08T03:15:14.309Z,0
2017-05-08T03:15:55.055Z,0
2017-05-08T03:16:35.707Z,0
2017-05-08T03:17:16.464Z,0
2017-05-08T03:17:57.052Z,0
2017-05-08T03:18:37.836Z,0
2017-05-08T03:19:18.524Z,0
2017-05-08T03:20:00.203Z,0
2017-05-08T03:20:40.755Z,0
2017-05-08T03:21:21.458Z,0
2017-05-08T03:22:02.163Z,4
2017-05-08T03:22:42.820Z,4
2017-05-08T03:23:23.470Z,0
2017-05-08T03:24:05.153Z,4
2017-05-08T03:24:45.798Z,4
2017-05-08T03:25:27.476Z,0
2017-05-08T03:26:08.132Z,0
2017-05-08T03:26:48.797Z,4
2017-05-08T03:27:30.460Z,4
2017-05-08T03:28:11.108Z,4
2017-05-08T03:28:53.818Z,4
2017-05-08T03:29:36.339Z,4
2017-05-08T03:30:16.886Z,8
2017-05-08T03:30:57.538Z,8
2017-05-08T03:31:38.196Z,4
2017-05-08T03:32:18.864Z,4
2017-05-08T03:32:59.602Z,4
2017-05-08T03:33:40.254Z,8
2017-05-08T03:34:20.836Z,8
2017-05-08T03:35:01.500Z,8
2017-05-08T03:35:42.213Z,8
2017-05-08T03:36:22.865Z,8
2017-05-08T03:37:03.517Z,12
2017-05-08T03:37:44.172Z,8
2017-05-08T03:38:24.821Z,12
2017-05-08T03:39:05.479Z,12
2017-05-08T03:39:46.223Z,8
2017-05-08T03:40:26.879Z,12
2017-05-08T03:41:07.536Z,12
2017-05-08T03:41:48.183Z,12
2017-05-08T03:42:28.838Z,16
2017-05-08T03:43:09.454Z,12
2017-05-08T03:43:50.148Z,12
2017-05-08T03:44:30.795Z,16
2017-05-08T03:45:11.371Z,16
2017-05-08T03:45:52.101Z,20
2017-05-08T03:46:32.772Z,16
2017-05-08T03:47:13.334Z,20
2017-05-08T03:47:54.059Z,20
2017-05-08T03:48:34.816Z,20
2017-05-08T03:49:15.386Z,20
2017-05-08T03:49:56.017Z,20
2017-05-08T03:50:36.681Z,20
2017-05-08T03:51:17.271Z,24
2017-05-08T03:51:57.976Z,24
2017-05-08T03:52:38.741Z,28
2017-05-08T03:53:19.487Z,28
2017-05-08T03:54:00.151Z,28
2017-05-08T03:54:40.802Z,28
2017-05-08T03:55:21.451Z,28
2017-05-08T03:56:02.106Z,32
2017-05-08T03:56:42.766Z,28
2017-05-08T03:57:23.415Z,32
2017-05-08T03:58:04.005Z,36
2017-05-08T03:58:44.690Z,40
2017-05-08T03:59:25.372Z,40
2017-05-08T04:00:06.018Z,40
2017-05-08T04:00:46.572Z,44
2017-05-08T04:01:27.296Z,48
2017-05-08T04:02:09.007Z,60
2017-05-08T04:02:49.664Z,68
2017-05-08T04:03:30.251Z,76
2017-05-08T04:04:11.016Z,88
2017-05-08T04:04:51.887Z,92
2017-05-08T04:05:32.582Z,96
2017-05-08T04:06:13.127Z,100
2017-05-08T04:06:53.848Z,104
2017-05-08T04:07:34.556Z,116
2017-05-08T04:08:15.291Z,124
2017-05-08T04:08:55.841Z,136
2017-05-08T04:09:36.494Z,148
2017-05-08T04:10:17.148Z,156
2017-05-08T04:10:57.710Z,164
2017-05-08T04:11:38.449Z,176
2017-05-08T04:12:19.208Z,192
2017-05-08T04:12:59.863Z,196
2017-05-08T04:13:41.544Z,196
2017-05-08T04:14:22.299Z,196
2017-05-08T04:15:03.050Z,196
2017-05-08T04:15:43.715Z,192
2017-05-08T04:16:24.461Z,192
2017-05-08T04:17:05.217Z,188
2017-05-08T04:17:45.813Z,192
2017-05-08T04:18:26.485Z,196
2017-05-08T04:19:07.189Z,208
2017-05-08T04:19:47.948Z,220
2017-05-08T04:20:31.483Z,228
2017-05-08T04:21:12.108Z,244
2017-05-08T04:21:52.836Z,256
2017-05-08T04:22:33.458Z,256
2017-05-08T04:23:14.100Z,260
2017-05-08T04:23:54.747Z,268
2017-05-08T04:24:35.406Z,276
2017-05-08T04:25:16.050Z,280
2017-05-08T04:25:56.709Z,280
2017-05-08T04:26:37.364Z,284
2017-05-08T04:27:18.015Z,288
2017-05-08T04:27:58.565Z,296
2017-05-08T04:28:39.177Z,308
2017-05-08T04:29:19.792Z,312
2017-05-08T04:30:00.431Z,316
2017-05-08T04:30:41.011Z,316
2017-05-08T04:31:21.684Z,316
2017-05-08T04:32:02.291Z,324
2017-05-08T04:32:42.930Z,332
2017-05-08T04:33:23.588Z,344
2017-05-08T04:34:04.236Z,356
2017-05-08T04:34:44.891Z,372
2017-05-08T04:35:25.558Z,396
2017-05-08T04:36:06.194Z,420
2017-05-08T04:36:46.853Z,448
2017-05-08T04:37:27.505Z,488
2017-05-08T04:38:08.159Z,528
2017-05-08T04:38:48.798Z,560
2017-05-08T04:39:29.462Z,580
2017-05-08T04:40:10.118Z,588
2017-05-08T04:40:50.767Z,584
2017-05-08T04:41:31.431Z,584
2017-05-08T04:42:12.072Z,584
2017-05-08T04:42:52.715Z,584
2017-05-08T04:43:33.378Z,580
2017-05-08T04:44:14.034Z,584
2017-05-08T04:44:54.814Z,592
2017-05-08T04:45:35.435Z,604
2017-05-08T04:46:16.091Z,616
2017-05-08T04:46:56.744Z,608
2017-05-08T04:47:37.327Z,584
2017-05-08T04:48:18.010Z,564
2017-05-08T04:48:58.707Z,548
2017-05-08T04:49:39.356Z,528
2017-05-08T04:50:19.932Z,488
2017-05-08T04:51:00.614Z,448
2017-05-08T04:51:41.209Z,400
2017-05-08T04:52:21.875Z,364
2017-05-08T04:53:02.473Z,336
2017-05-08T04:53:43.134Z,320
2017-05-08T04:54:23.820Z,324
2017-05-08T04:55:04.477Z,340
2017-05-08T04:55:45.052Z,332
2017-05-08T04:56:25.757Z,320
2017-05-08T04:57:06.437Z,304
2017-05-08T04:57:47.093Z,280
2017-05-08T04:58:27.669Z,268
2017-05-08T04:59:08.297Z,256
2017-05-08T04:59:48.946Z,268
2017-05-08T05:00:29.524Z,292
2017-05-08T05:01:10.148Z,324
2017-05-08T05:01:50.808Z,372
2017-05-08T05:02:31.379Z,428
2017-05-08T05:03:12.009Z,468
2017-05-08T05:03:52.637Z,476
2017-05-08T05:04:33.306Z,480
2017-05-08T05:05:13.959Z,484
2017-05-08T05:05:54.616Z,492
2017-05-08T05:06:35.267Z,512
2017-05-08T05:07:15.921Z,548
2017-05-08T05:07:56.495Z,588
2017-05-08T05:08:37.181Z,636
2017-05-08T05:09:17.878Z,672
2017-05-08T05:09:58.539Z,744
2017-05-08T05:10:39.093Z,872
2017-05-08T05:11:19.707Z,1044
2017-05-08T05:12:00.386Z,1156
2017-05-08T05:12:41.085Z,1184
2017-05-08T05:13:21.774Z,1160
2017-05-08T05:14:02.521Z,1084
2017-05-08T05:14:43.320Z,1200
2017-05-08T05:15:24.060Z,1328
2017-05-08T05:16:04.813Z,1312
2017-05-08T05:16:45.556Z,1152
2017-05-08T05:17:26.316Z,1008
2017-05-08T05:18:06.889Z,948
2017-05-08T05:18:47.626Z,1064
2017-05-08T05:19:28.186Z,1320
2017-05-08T05:20:08.891Z,1496
2017-05-08T05:20:49.596Z,1488
2017-05-08T05:21:30.343Z,1364
2017-05-08T05:22:10.901Z,1248
2017-05-08T05:22:51.607Z,1108
2017-05-08T05:23:32.287Z,1004
2017-05-08T05:24:13.045Z,1028
2017-05-08T05:24:53.803Z,1072
2017-05-08T05:25:34.453Z,1120
2017-05-08T05:26:15.118Z,1124
2017-05-08T05:26:55.760Z,1120
2017-05-08T05:27:36.423Z,1136
2017-05-08T05:28:16.996Z,1172
2017-05-08T05:28:57.677Z,1204
2017-05-08T05:29:38.269Z,1228
2017-05-08T05:30:18.929Z,1288
2017-05-08T05:30:59.470Z,1344
2017-05-08T05:31:40.268Z,1372
2017-05-08T05:32:20.879Z,1376
2017-05-08T05:33:01.533Z,1404
2017-05-08T05:33:42.136Z,1460
2017-05-08T05:34:22.736Z,1540
2017-05-08T05:35:03.398Z,1668
2017-05-08T05:35:43.981Z,1768
2017-05-08T05:36:24.598Z,1844
2017-05-08T05:37:05.477Z,1904
2017-05-08T05:37:46.038Z,1936
2017-05-08T05:38:26.727Z,1972
2017-05-08T05:39:07.364Z,2036
2017-05-08T05:39:48.050Z,2136
2017-05-08T05:40:28.677Z,2220
2017-05-08T05:41:09.340Z,2232
2017-05-08T05:41:49.978Z,2176
2017-05-08T05:42:30.625Z,2132
2017-05-08T05:43:11.293Z,2136
2017-05-08T05:43:51.873Z,2204
2017-05-08T05:44:32.569Z,2312
2017-05-08T05:45:13.148Z,2464
2017-05-08T05:45:53.835Z,2632
2017-05-08T05:46:34.373Z,2772
2017-05-08T05:47:15.063Z,2880
2017-05-08T05:47:55.701Z,2980
2017-05-08T05:48:36.254Z,3076
2017-05-08T05:49:16.872Z,3180
2017-05-08T05:49:57.548Z,3272
2017-05-08T05:50:38.225Z,3312
2017-05-08T05:51:18.791Z,3312
2017-05-08T05:51:59.536Z,3276
2017-05-08T05:52:40.171Z,3220
2017-05-08T05:53:20.831Z,3136
2017-05-08T05:54:01.392Z,3048
2017-05-08T05:54:42.085Z,2992
2017-05-08T05:55:22.668Z,2992
2017-05-08T05:56:03.343Z,3024
2017-05-08T05:56:43.907Z,3024
2017-05-08T05:57:24.594Z,3004
2017-05-08T05:58:05.287Z,2992
2017-05-08T05:58:45.943Z,2992
2017-05-08T05:59:26.522Z,2984
2017-05-08T06:00:07.215Z,2956
2017-05-08T06:00:47.908Z,2976
2017-05-08T06:01:28.564Z,3068
2017-05-08T06:02:09.141Z,3152
2017-05-08T06:02:49.821Z,3220
2017-05-08T06:03:31.441Z,3256
2017-05-08T06:04:12.132Z,3276
2017-05-08T06:04:52.753Z,3244
2017-05-08T06:05:33.391Z,3168
2017-05-08T06:06:14.051Z,3052
2017-05-08T06:06:54.708Z,2888
2017-05-08T06:07:35.360Z,2628
2017-05-08T06:08:16.014Z,2316
2017-05-08T06:08:56.657Z,2088
2017-05-08T06:09:37.314Z,1976
2017-05-08T06:10:17.960Z,1912
2017-05-08T06:10:58.607Z,1860
2017-05-08T06:11:39.264Z,1836
2017-05-08T06:12:19.932Z,1824
2017-05-08T06:13:00.578Z,1792
2017-05-08T06:13:41.260Z,1756
2017-05-08T06:14:21.886Z,1724
2017-05-08T06:15:02.552Z,1692
2017-05-08T06:15:43.196Z,1672
2017-05-08T06:16:23.846Z,1652
2017-05-08T06:17:04.469Z,1648
2017-05-08T06:17:45.158Z,1664
2017-05-08T06:18:25.843Z,1672
2017-05-08T06:19:06.501Z,1664
2017-05-08T06:19:47.110Z,1672
2017-05-08T06:20:27.762Z,1696
2017-05-08T06:21:08.335Z,1724
2017-05-08T06:21:48.969Z,1728
2017-05-08T06:22:29.713Z,1712
2017-05-08T06:23:10.318Z,1696
2017-05-08T06:23:50.924Z,1672
2017-05-08T06:24:31.578Z,1652
2017-05-08T06:25:12.154Z,1608
2017-05-08T06:25:52.779Z,1580
2017-05-08T06:26:33.430Z,1588
2017-05-08T06:27:14.198Z,1608
2017-05-08T06:27:54.763Z,1624
2017-05-08T06:28:35.476Z,1632
2017-05-08T06:29:16.096Z,1640
2017-05-08T06:29:56.766Z,1640
2017-05-08T06:30:37.490Z,1644
2017-05-08T06:31:18.172Z,1672
2017-05-08T06:31:58.815Z,1708
2017-05-08T06:32:39.488Z,1716
2017-05-08T06:33:20.113Z,1716
2017-05-08T06:34:00.797Z,1728
2017-05-08T06:34:41.445Z,1740
2017-05-08T06:35:22.093Z,1728
2017-05-08T06:36:02.728Z,1712
2017-05-08T06:36:43.420Z,1696
2017-05-08T06:37:24.052Z,1692
2017-05-08T06:38:04.707Z,1700
2017-05-08T06:38:45.341Z,1712
2017-05-08T06:39:25.993Z,1708
2017-05-08T06:40:06.662Z,1692
2017-05-08T06:40:47.298Z,1660
2017-05-08T06:41:27.951Z,1656
2017-05-08T06:42:08.678Z,1676
2017-05-08T06:42:49.361Z,1740
2017-05-08T06:43:30.030Z,1796
2017-05-08T06:44:10.669Z,1848
2017-05-08T06:44:51.321Z,1900
2017-05-08T06:45:31.997Z,1936
2017-05-08T06:46:12.658Z,1952
2017-05-08T06:46:53.340Z,1964
2017-05-08T06:47:34.048Z,1976
2017-05-08T06:48:14.689Z,1976
2017-05-08T06:48:55.339Z,1960
2017-05-08T06:49:36.053Z,1964
2017-05-08T06:50:16.618Z,1992
2017-05-08T06:50:57.294Z,2044
2017-05-08T06:51:38.008Z,2112
2017-05-08T06:52:18.656Z,2168
2017-05-08T06:52:59.244Z,2204
2017-05-08T06:53:39.914Z,2228
2017-05-08T06:54:20.578Z,2268
2017-05-08T06:55:01.245Z,2308
2017-05-08T06:55:41.905Z,2312
2017-05-08T06:56:22.537Z,2284
2017-05-08T06:57:03.208Z,2244
2017-05-08T06:57:43.834Z,2208
2017-05-08T06:58:24.515Z,2220
2017-05-08T06:59:05.207Z,2240
2017-05-08T06:59:45.850Z,2264
2017-05-08T07:00:26.493Z,2288
2017-05-08T07:01:07.174Z,2312
2017-05-08T07:01:47.843Z,2312
2017-05-08T07:02:28.479Z,2272
2017-05-08T07:03:09.143Z,2200
2017-05-08T07:03:49.772Z,2132
2017-05-08T07:04:32.462Z,2104
2017-05-08T07:05:13.117Z,2148
2017-05-08T07:05:53.794Z,2184
2017-05-08T07:06:34.429Z,2188
2017-05-08T07:07:16.119Z,2160
2017-05-08T07:07:56.888Z,2140
2017-05-08T07:08:37.611Z,2100
2017-05-08T07:09:18.269Z,2028
2017-05-08T07:09:59.942Z,1980
2017-05-08T07:10:40.585Z,1948
2017-05-08T07:11:21.242Z,1940
2017-05-08T07:12:01.914Z,1988
2017-05-08T07:12:42.559Z,2068
2017-05-08T07:13:23.144Z,2148
2017-05-08T07:14:04.770Z,2228
2017-05-08T07:14:46.462Z,2308
2017-05-08T07:15:27.042Z,2384
2017-05-08T07:16:07.649Z,2492
2017-05-08T07:16:48.320Z,2612
2017-05-08T07:17:28.883Z,2752
2017-05-08T07:18:09.534Z,2880
2017-05-08T07:18:50.188Z,3016
2017-05-08T07:19:30.832Z,3128
2017-05-08T07:20:11.492Z,3220
2017-05-08T07:20:52.137Z,3264
2017-05-08T07:21:32.817Z,3244
2017-05-08T07:22:13.403Z,3164
2017-05-08T07:22:54.103Z,3092
2017-05-08T07:23:34.745Z,3108
2017-05-08T07:24:15.400Z,3060
2017-05-08T07:24:56.049Z,2980
2017-05-08T07:25:36.705Z,2960
2017-05-08T07:26:17.362Z,2944
2017-05-08T07:26:58.007Z,2932
2017-05-08T07:27:38.678Z,2924
2017-05-08T07:28:19.309Z,2932
2017-05-08T07:28:59.987Z,2944
2017-05-08T07:29:40.636Z,2952
2017-05-08T07:30:21.275Z,2964
2017-05-08T07:31:01.920Z,2968
2017-05-08T07:31:42.578Z,2976
2017-05-08T07:32:24.276Z,2988
2017-05-08T07:33:05.920Z,3008
2017-05-08T07:33:46.557Z,3048
2017-05-08T07:34:27.223Z,3072
2017-05-08T07:35:07.889Z,3124
2017-05-08T07:35:48.557Z,3156
2017-05-08T07:36:29.129Z,3176
2017-05-08T07:37:09.772Z,3220
2017-05-08T07:37:50.508Z,3348
2017-05-08T07:38:31.147Z,3504
2017-05-08T07:39:11.807Z,3652
2017-05-08T07:39:52.461Z,3760
2017-05-08T07:40:33.116Z,3800
2017-05-08T07:41:13.874Z,3788
2017-05-08T07:41:54.520Z,3740
2017-05-08T07:42:35.173Z,3668
2017-05-08T07:43:15.746Z,3596
2017-05-08T07:43:58.459Z,3572
2017-05-08T07:44:39.085Z,3596
2017-05-08T07:45:19.637Z,3636
2017-05-08T07:46:00.308Z,3672
2017-05-08T07:46:40.944Z,3676
2017-05-08T07:47:21.501Z,3656
2017-05-08T07:48:02.144Z,3692
2017-05-08T07:48:42.799Z,3760
2017-05-08T07:49:23.557Z,3872
2017-05-08T07:50:04.201Z,4012
2017-05-08T07:50:44.833Z,4120
2017-05-08T07:51:25.482Z,4164
2017-05-08T07:52:06.118Z,4160
2017-05-08T07:52:46.770Z,4112
2017-05-08T07:53:27.442Z,4068
2017-05-08T07:54:08.804Z,4088
2017-05-08T07:54:49.448Z,4100
2017-05-08T07:55:30.101Z,4104
2017-05-08T07:56:10.756Z,4140
2017-05-08T07:56:51.424Z,4152
2017-05-08T07:57:32.068Z,4192
2017-05-08T07:58:12.731Z,4200
2017-05-08T07:58:53.365Z,4212
2017-05-08T07:59:34.029Z,4160
2017-05-08T08:00:14.689Z,4168
2017-05-08T08:00:55.340Z,4228
2017-05-08T08:01:35.993Z,4188
2017-05-08T08:02:16.664Z,4068
2017-05-08T08:02:57.278Z,3940
2017-05-08T08:03:37.937Z,3828
2017-05-08T08:04:18.589Z,3716
2017-05-08T08:04:59.261Z,3604
2017-05-08T08:05:39.912Z,3512
2017-05-08T08:06:20.566Z,3416
2017-05-08T08:07:01.219Z,3384
2017-05-08T08:07:41.865Z,3356
2017-05-08T08:08:22.429Z,3340
2017-05-08T08:09:03.123Z,3284
2017-05-08T08:09:43.711Z,3220
2017-05-08T08:10:24.371Z,3192
2017-05-08T08:11:04.929Z,3248
2017-05-08T08:11:45.551Z,3308
2017-05-08T08:12:26.241Z,3324
2017-05-08T08:13:06.882Z,3320
2017-05-08T08:13:47.454Z,3316
2017-05-08T08:14:28.176Z,3364
2017-05-08T08:15:08.843Z,3408
2017-05-08T08:15:50.536Z,3436
2017-05-08T08:16:31.075Z,3464
2017-05-08T08:17:11.761Z,3580
2017-05-08T08:17:57.376Z,3660
2017-05-08T08:18:38.047Z,3628
2017-05-08T08:19:18.633Z,3540
2017-05-08T08:19:59.241Z,3460
2017-05-08T08:20:39.909Z,3396
2017-05-08T08:21:20.476Z,3376
2017-05-08T08:22:01.124Z,3368
2017-05-08T08:22:42.775Z,3436
2017-05-08T08:23:23.352Z,3516
2017-05-08T08:24:03.987Z,3568
2017-05-08T08:24:44.665Z,3600
2017-05-08T08:25:25.294Z,3660
2017-05-08T08:26:05.956Z,3796
2017-05-08T08:26:46.611Z,3920
2017-05-08T08:27:27.246Z,3964
2017-05-08T08:28:07.911Z,3876
2017-05-08T08:28:48.556Z,3784
2017-05-08T08:29:29.131Z,3732
2017-05-08T08:30:11.705Z,3708
2017-05-08T08:30:52.358Z,3792
2017-05-08T08:31:32.931Z,3988
2017-05-08T08:32:13.547Z,4300
2017-05-08T08:32:54.213Z,4720
2017-05-08T08:33:34.788Z,5100
2017-05-08T08:34:15.423Z,5344
2017-05-08T08:34:56.070Z,5560
2017-05-08T08:35:36.729Z,5640
2017-05-08T08:36:17.383Z,5628
2017-05-08T08:36:58.055Z,5696
2017-05-08T08:37:38.682Z,5900
2017-05-08T08:38:20.366Z,6128
2017-05-08T08:39:01.014Z,6252
2017-05-08T08:39:41.679Z,6180
2017-05-08T08:40:22.319Z,6096
2017-05-08T08:41:02.977Z,6020
2017-05-08T08:41:43.626Z,5908
2017-05-08T08:42:24.314Z,5796
2017-05-08T08:43:04.926Z,5676
2017-05-08T08:43:45.588Z,5488
2017-05-08T08:44:26.241Z,5252
2017-05-08T08:45:06.884Z,5012
2017-05-08T08:45:47.548Z,4772
2017-05-08T08:46:28.200Z,4540
2017-05-08T08:47:08.854Z,4384
2017-05-08T08:47:50.528Z,4280
2017-05-08T08:48:31.178Z,4192
2017-05-08T08:49:11.827Z,4124
2017-05-08T08:49:52.499Z,4052
2017-05-08T08:50:33.138Z,4016
2017-05-08T08:51:13.797Z,4040
2017-05-08T08:51:54.447Z,4060
2017-05-08T08:52:35.095Z,4044
2017-05-08T08:53:15.755Z,4060
2017-05-08T08:53:56.414Z,4044
2017-05-08T08:54:37.051Z,4160
2017-05-08T08:55:18.761Z,4212
2017-05-08T08:56:00.438Z,4164
2017-05-08T08:56:41.163Z,4092
2017-05-08T08:57:21.862Z,4132
2017-05-08T08:58:02.571Z,4316
2017-05-08T08:58:44.283Z,4652
2017-05-08T08:59:25.927Z,5092
2017-05-08T09:00:06.573Z,5384
2017-05-08T09:00:47.231Z,5388
2017-05-08T09:01:27.878Z,5164
2017-05-08T09:02:08.539Z,4880
2017-05-08T09:02:49.183Z,4536
2017-05-08T09:03:29.845Z,4252
2017-05-08T09:04:10.504Z,4016
2017-05-08T09:04:51.144Z,3812
2017-05-08T09:05:31.799Z,3656
2017-05-08T09:06:12.465Z,3564
2017-05-08T09:06:53.114Z,3524
2017-05-08T09:07:33.817Z,3476
2017-05-08T09:08:14.533Z,3420
2017-05-08T09:08:55.112Z,3364
2017-05-08T09:09:35.793Z,3364
2017-05-08T09:10:16.483Z,3344
2017-05-08T09:10:57.136Z,3304
2017-05-08T09:11:37.725Z,3240
2017-05-08T09:12:18.379Z,3212
2017-05-08T09:12:59.118Z,3188
2017-05-08T09:13:39.845Z,3168
2017-05-08T09:14:20.450Z,3112
2017-05-08T09:15:01.178Z,3076
2017-05-08T09:15:41.916Z,3024
2017-05-08T09:16:22.469Z,3012
2017-05-08T09:17:03.116Z,2960
2017-05-08T09:17:43.771Z,2952
2017-05-08T09:18:24.353Z,2968
2017-05-08T09:19:04.991Z,2964
2017-05-08T09:19:45.625Z,2940
2017-05-08T09:20:26.186Z,2916
2017-05-08T09:21:06.885Z,2924
2017-05-08T09:21:47.575Z,2952
2017-05-08T09:22:28.245Z,2984
2017-05-08T09:23:08.827Z,3040
2017-05-08T09:23:49.484Z,2988
2017-05-08T09:24:30.177Z,2940
2017-05-08T09:25:10.837Z,2912
2017-05-08T09:25:51.541Z,2904
2017-05-08T09:26:32.224Z,2920
2017-05-08T09:27:12.899Z,2956
2017-05-08T09:27:53.531Z,3016
2017-05-08T09:28:34.185Z,3048